MDT,Max TemperatureF,Mean TemperatureF,Min TemperatureF,Max Dew PointF,MeanDew PointF,Min DewpointF,Max Humidity, Mean Humidity, Min Humidity, Max Sea Level PressureIn, Mean Sea Level PressureIn, Min Sea Level PressureIn, Max VisibilityMiles, Mean VisibilityMiles, Min VisibilityMiles, Max Wind SpeedMPH, Mean Wind SpeedMPH, Max Gust SpeedMPH,PrecipitationIn, CloudCover, Events, WindDirDegrees
2013-4-1,56,39,22,25,22,17,81,56,30,30.23,30.15,30.08,10,10,10,16,8,22,0.00,0,,113
2013-4-2,60,42,24,30,26,20,81,54,26,30.16,30.11,30.05,10,10,10,17,7,22,0.00,0,,129
2013-4-3,70,48,25,34,30,22,89,56,22,30.15,30.04,29.94,10,10,10,25,7,30,0.00,2,,144
2013-4-4,71,52,33,36,33,29,82,55,27,30.14,30.01,29.87,10,10,7,23,8,35,0.00,1,,98
2013-4-5,76,59,41,39,33,26,66,45,23,29.84,29.68,29.55,10,10,5,43,14,51,T,2,,286
2013-4-6,68,51,33,37,30,24,92,59,25,29.84,29.78,29.73,10,10,10,20,10,29,0.00,1,,296
2013-4-7,69,57,45,43,32,28,86,56,26,29.73,29.63,29.53,10,10,8,29,14,37,0.05,2,Rain,268
2013-4-8,64,41,18,40,28,18,92,62,32,29.96,29.71,29.55,10,6,0,29,16,36,0.46,5,Fog-Rain-Snow-Thunderstorm,14
2013-4-9,20,17,13,16,10,8,96,88,80,30.42,30.19,29.94,7,2,0,29,17,35,0.47,8,Fog-Snow,350
2013-4-10,26,19,11,18,13,6,92,78,63,30.40,30.21,30.06,10,8,2,22,12,26,0.01,6,Snow,315
2013-4-11,41,23,4,33,18,1,92,75,58,30.04,29.91,29.76,10,10,2,25,11,32,0.01,4,Snow,313
2013-4-12,44,37,29,36,32,28,92,81,70,30.05,29.98,29.92,10,8,2,15,5,18,0.11,5,Rain-Snow,300
2013-4-13,55,43,30,41,36,27,92,73,54,30.01,29.63,29.43,10,10,9,20,9,24,0.03,6,Rain,131
2013-4-14,48,38,27,39,27,14,92,60,28,29.85,29.61,29.40,10,7,0,33,17,47,0.02,5,Fog-Rain-Snow,295
2013-4-15,35,30,24,27,22,15,92,70,47,30.13,29.99,29.82,10,7,2,18,9,22,0.07,7,Snow,160
2013-4-16,31,29,27,30,27,25,100,96,92,30.18,30.08,30.00,10,4,1,29,16,33,0.27,8,Rain-Snow,101
2013-4-17,29,27,24,27,23,18,92,85,78,30.28,30.11,30.03,10,5,0,24,14,29,0.09,8,Fog-Rain-Snow,29
2013-4-18,32,24,16,21,17,12,88,73,58,30.24,30.20,30.10,10,10,6,33,17,43,T,4,Snow,312
2013-4-19,53,37,20,33,25,16,84,60,36,30.17,30.04,29.94,10,10,10,22,10,30,0.00,3,,285
2013-4-20,62,49,36,44,37,32,89,64,39,29.95,29.90,29.86,10,10,6,18,7,25,0.03,6,Rain-Thunderstorm,102
2013-4-21,61,48,35,43,38,33,100,68,36,30.04,29.98,29.92,10,10,10,24,9,30,T,4,,46
2013-4-22,43,33,23,43,27,17,96,76,56,30.47,30.14,29.87,10,10,7,38,18,46,0.01,7,Rain,52
2013-4-23,44,33,22,20,16,13,84,57,29,30.43,30.29,30.17,10,10,10,15,6,22,0.00,4,,318
2013-4-24,54,38,21,26,21,18,88,58,28,30.23,30.19,30.12,10,10,10,31,11,39,0.00,2,,346
2013-4-25,72,50,28,41,29,18,78,53,28,30.19,29.96,29.81,10,10,10,23,9,30,0.00,0,,287
2013-4-26,73,53,33,42,30,19,61,47,32,30.13,30.08,29.95,10,10,10,13,6,17,0.00,1,,323
2013-4-27,80,58,36,49,36,24,64,48,32,30.11,29.97,29.82,10,10,10,21,7,32,0.00,0,,324
2013-4-28,79,59,38,49,38,28,60,47,33,29.83,29.79,29.75,10,10,10,29,12,36,0.00,1,,360
2013-4-29,82,60,38,50,41,34,82,58,33,29.84,29.59,29.41,10,10,10,30,12,39,0.00,0,,259
2013-4-30,69,51,33,40,35,27,100,69,38,30.09,29.87,29.53,10,8,2,29,9,35,0.56,5,Rain-Snow,23